DCM3130 KMFE-KOKC
Flight info
| Callsign | DCM3130 |
|---|---|
| Flight time | N/A |
| Altitude | 49000 |
| Route | CRP KOSTE FIGET TSDEL3 |
| Aircraft | C750/M-SBDE3FGHRWXY/S |
Departure
| Time | 2026-04-26 06:19 |
|---|---|
| Airport | McAllen Miller International Airport (KMFE) |
Arrival
| Time | N/A |
|---|---|
| Airport | OKC Will Rogers World Airport (KOKC) |
| Time | Latitude | Longitude | Altitude | Speed | Heading |
|---|---|---|---|---|---|
| 2026-04-26 05:50 | 26.17485 | -98.23600 | 98 ft | 0 kts | 282° |
| 2026-04-26 06:13 | 26.17485 | -98.23602 | 98 ft | 2 kts | 277° |
| 2026-04-26 06:14 | 26.17470 | -98.23622 | 99 ft | 7 kts | 218° |
| 2026-04-26 06:14 | 26.17461 | -98.23659 | 103 ft | 0 kts | 276° |
| 2026-04-26 06:14 | 26.17455 | -98.23681 | 105 ft | 8 kts | 242° |
| 2026-04-26 06:14 | 26.17481 | -98.23734 | 101 ft | 12 kts | 321° |
| 2026-04-26 06:15 | 26.17567 | -98.23812 | 99 ft | 17 kts | 321° |
| 2026-04-26 06:15 | 26.17655 | -98.23892 | 99 ft | 16 kts | 320° |
| 2026-04-26 06:15 | 26.17737 | -98.23967 | 99 ft | 15 kts | 320° |
| 2026-04-26 06:15 | 26.17813 | -98.24038 | 99 ft | 14 kts | 321° |
| 2026-04-26 06:16 | 26.17889 | -98.24108 | 99 ft | 14 kts | 321° |
| 2026-04-26 06:16 | 26.17964 | -98.24176 | 99 ft | 14 kts | 320° |
| 2026-04-26 06:16 | 26.18035 | -98.24242 | 99 ft | 13 kts | 320° |
| 2026-04-26 06:16 | 26.18097 | -98.24296 | 99 ft | 10 kts | 321° |
| 2026-04-26 06:17 | 26.18150 | -98.24344 | 99 ft | 9 kts | 321° |
| 2026-04-26 06:17 | 26.18196 | -98.24386 | 100 ft | 9 kts | 317° |
| 2026-04-26 06:17 | 26.18259 | -98.24443 | 100 ft | 12 kts | 321° |
| 2026-04-26 06:17 | 26.18324 | -98.24501 | 100 ft | 11 kts | 321° |
| 2026-04-26 06:18 | 26.18330 | -98.24554 | 101 ft | 4 kts | 234° |
| 2026-04-26 06:18 | 26.18322 | -98.24566 | 102 ft | 4 kts | 234° |
| 2026-04-26 06:18 | 26.18297 | -98.24602 | 106 ft | 6 kts | 217° |
| 2026-04-26 06:18 | 26.18232 | -98.24576 | 106 ft | 20 kts | 140° |
| 2026-04-26 06:19 | 26.17985 | -98.24352 | 106 ft | 94 kts | 142° |
| 2026-04-26 06:19 | 26.17266 | -98.23701 | 273 ft | 149 kts | 141° |
| 2026-04-26 06:19 | 26.16467 | -98.22910 | 931 ft | 158 kts | 128° |
| 2026-04-26 06:19 | 26.16063 | -98.21758 | 1650 ft | 167 kts | 99° |
| 2026-04-26 06:20 | 26.16159 | -98.20390 | 1988 ft | 201 kts | 76° |
| 2026-04-26 06:20 | 26.17094 | -98.19035 | 2161 ft | 239 kts | 38° |
| 2026-04-26 06:20 | 26.18683 | -98.18170 | 2714 ft | 268 kts | 23° |
| 2026-04-26 06:20 | 26.20485 | -98.17484 | 3637 ft | 276 kts | 20° |
| 2026-04-26 06:21 | 26.22311 | -98.16763 | 4622 ft | 280 kts | 22° |
| 2026-04-26 06:21 | 26.24138 | -98.15966 | 5556 ft | 284 kts | 24° |
| 2026-04-26 06:21 | 26.25990 | -98.15164 | 6484 ft | 287 kts | 22° |
| 2026-04-26 06:21 | 26.27871 | -98.14376 | 7442 ft | 290 kts | 22° |
| 2026-04-26 06:22 | 26.29766 | -98.13578 | 8460 ft | 292 kts | 22° |
| 2026-04-26 06:22 | 26.31676 | -98.12769 | 9460 ft | 295 kts | 22° |
| 2026-04-26 06:22 | 26.33608 | -98.11950 | 10304 ft | 302 kts | 21° |
| 2026-04-26 06:22 | 26.34939 | -98.11381 | 10494 ft | 319 kts | 21° |
| 2026-04-26 06:23 | 26.37106 | -98.10462 | 10615 ft | 347 kts | 21° |
| 2026-04-26 06:23 | 26.39454 | -98.09471 | 10730 ft | 372 kts | 21° |
| 2026-04-26 06:23 | 26.41879 | -98.08436 | 11485 ft | 373 kts | 20° |
| 2026-04-26 06:23 | 26.44318 | -98.07399 | 12170 ft | 378 kts | 19° |
| 2026-04-26 06:24 | 26.46787 | -98.06361 | 12904 ft | 379 kts | 18° |
| 2026-04-26 06:24 | 26.49248 | -98.05315 | 13687 ft | 379 kts | 18° |
| 2026-04-26 06:24 | 26.51719 | -98.04259 | 14349 ft | 382 kts | 18° |
| 2026-04-26 06:24 | 26.54208 | -98.03196 | 15008 ft | 384 kts | 17° |
| 2026-04-26 06:25 | 26.56712 | -98.02133 | 15645 ft | 387 kts | 17° |
| 2026-04-26 06:25 | 26.59238 | -98.01059 | 16299 ft | 390 kts | 17° |
| 2026-04-26 06:25 | 26.61785 | -97.99972 | 16947 ft | 393 kts | 17° |
| 2026-04-26 06:25 | 26.64315 | -97.98893 | 17592 ft | 396 kts | 17° |
| 2026-04-26 06:26 | 26.66896 | -97.97793 | 18270 ft | 398 kts | 17° |
| 2026-04-26 06:26 | 26.69530 | -97.96669 | 18925 ft | 402 kts | 17° |
| 2026-04-26 06:26 | 26.72115 | -97.95566 | 19540 ft | 406 kts | 17° |
| 2026-04-26 06:26 | 26.74771 | -97.94432 | 20191 ft | 409 kts | 17° |
| 2026-04-26 06:27 | 26.77438 | -97.93291 | 20828 ft | 413 kts | 17° |
| 2026-04-26 06:27 | 26.80135 | -97.92139 | 21460 ft | 417 kts | 17° |
| 2026-04-26 06:27 | 26.82855 | -97.90975 | 22071 ft | 420 kts | 17° |
| 2026-04-26 06:27 | 26.85598 | -97.89801 | 22698 ft | 423 kts | 17° |
| 2026-04-26 06:28 | 26.88361 | -97.88618 | 23304 ft | 427 kts | 17° |
| 2026-04-26 06:28 | 26.91148 | -97.87424 | 23893 ft | 431 kts | 17° |
| 2026-04-26 06:28 | 26.93957 | -97.86219 | 24478 ft | 434 kts | 17° |
| 2026-04-26 06:28 | 26.96792 | -97.85003 | 25029 ft | 438 kts | 17° |
| 2026-04-26 06:29 | 26.99651 | -97.83777 | 25580 ft | 442 kts | 16° |
| 2026-04-26 06:29 | 27.02537 | -97.82539 | 26096 ft | 446 kts | 16° |
| 2026-04-26 06:29 | 27.05444 | -97.81290 | 26604 ft | 450 kts | 16° |
| 2026-04-26 06:29 | 27.08385 | -97.80025 | 27096 ft | 455 kts | 16° |
| 2026-04-26 06:30 | 27.11353 | -97.78749 | 27586 ft | 459 kts | 16° |
| 2026-04-26 06:30 | 27.14347 | -97.77461 | 28062 ft | 463 kts | 16° |
| 2026-04-26 06:30 | 27.17369 | -97.76160 | 28522 ft | 467 kts | 16° |
| 2026-04-26 06:30 | 27.20416 | -97.74846 | 28975 ft | 471 kts | 17° |
| 2026-04-26 06:31 | 27.23492 | -97.73521 | 29387 ft | 476 kts | 17° |
| 2026-04-26 06:31 | 27.26594 | -97.72183 | 29819 ft | 479 kts | 17° |
| 2026-04-26 06:31 | 27.29721 | -97.70832 | 30231 ft | 483 kts | 17° |
| 2026-04-26 06:31 | 27.32874 | -97.69471 | 30660 ft | 487 kts | 17° |
| 2026-04-26 06:32 | 27.36035 | -97.68104 | 31280 ft | 485 kts | 17° |
| 2026-04-26 06:32 | 27.39169 | -97.66745 | 32014 ft | 481 kts | 16° |
| 2026-04-26 06:32 | 27.42280 | -97.65400 | 32735 ft | 477 kts | 16° |
| 2026-04-26 06:32 | 27.45365 | -97.64066 | 33452 ft | 473 kts | 15° |
| 2026-04-26 06:33 | 27.48422 | -97.62741 | 34167 ft | 469 kts | 15° |
| 2026-04-26 06:33 | 27.51447 | -97.61429 | 34849 ft | 465 kts | 15° |
| 2026-04-26 06:33 | 27.54419 | -97.60141 | 35443 ft | 463 kts | 14° |
| 2026-04-26 06:33 | 27.57467 | -97.58821 | 35983 ft | 463 kts | 14° |
| 2026-04-26 06:34 | 27.60428 | -97.57535 | 36508 ft | 462 kts | 14° |
| 2026-04-26 06:34 | 27.63427 | -97.56231 | 36977 ft | 462 kts | 14° |
| 2026-04-26 06:34 | 27.66429 | -97.54926 | 37469 ft | 462 kts | 14° |
| 2026-04-26 06:34 | 27.69423 | -97.53624 | 37995 ft | 461 kts | 14° |
| 2026-04-26 06:35 | 27.72410 | -97.52323 | 38506 ft | 460 kts | 13° |
| 2026-04-26 06:35 | 27.75395 | -97.51024 | 38988 ft | 459 kts | 13° |
| 2026-04-26 06:35 | 27.78374 | -97.49726 | 39490 ft | 458 kts | 13° |
| 2026-04-26 06:35 | 27.81376 | -97.48416 | 39993 ft | 457 kts | 13° |
| 2026-04-26 06:36 | 27.84334 | -97.47126 | 40484 ft | 455 kts | 13° |
| 2026-04-26 06:36 | 27.87241 | -97.45870 | 40951 ft | 451 kts | 11° |
| 2026-04-26 06:36 | 27.90233 | -97.44955 | 41353 ft | 440 kts | 2° |
| 2026-04-26 06:36 | 27.93235 | -97.44540 | 41817 ft | 430 kts | 355° |
| 2026-04-26 06:37 | 27.96195 | -97.44526 | 42259 ft | 423 kts | 351° |
| 2026-04-26 06:37 | 27.99138 | -97.44551 | 42641 ft | 423 kts | 352° |
| 2026-04-26 06:37 | 28.02075 | -97.44556 | 43020 ft | 421 kts | 352° |
| 2026-04-26 06:37 | 28.05001 | -97.44567 | 43413 ft | 419 kts | 351° |
| 2026-04-26 06:38 | 28.07912 | -97.44590 | 43772 ft | 418 kts | 351° |
| 2026-04-26 06:38 | 28.10817 | -97.44613 | 44101 ft | 417 kts | 351° |
| 2026-04-26 06:38 | 28.13708 | -97.44628 | 44429 ft | 416 kts | 351° |
| 2026-04-26 06:38 | 28.16607 | -97.44644 | 44651 ft | 418 kts | 351° |
| 2026-04-26 06:39 | 28.19522 | -97.44664 | 44827 ft | 420 kts | 352° |
| 2026-04-26 06:39 | 28.22448 | -97.44682 | 45057 ft | 421 kts | 352° |
| 2026-04-26 06:39 | 28.25383 | -97.44698 | 45263 ft | 422 kts | 352° |
| 2026-04-26 06:39 | 28.28326 | -97.44716 | 45456 ft | 423 kts | 352° |
| 2026-04-26 06:40 | 28.31277 | -97.44734 | 45645 ft | 425 kts | 352° |
| 2026-04-26 06:40 | 28.34239 | -97.44752 | 45821 ft | 426 kts | 352° |
| 2026-04-26 06:40 | 28.37201 | -97.44770 | 46013 ft | 427 kts | 352° |
| 2026-04-26 06:40 | 28.40177 | -97.44787 | 46186 ft | 428 kts | 352° |
| 2026-04-26 06:41 | 28.43160 | -97.44806 | 46349 ft | 429 kts | 353° |
| 2026-04-26 06:41 | 28.46150 | -97.44824 | 46519 ft | 430 kts | 353° |
| 2026-04-26 06:41 | 28.49147 | -97.44842 | 46677 ft | 431 kts | 353° |
| 2026-04-26 06:41 | 28.52151 | -97.44860 | 46835 ft | 432 kts | 353° |
| 2026-04-26 06:42 | 28.55176 | -97.44880 | 46832 ft | 437 kts | 353° |
| 2026-04-26 06:42 | 28.61321 | -97.44917 | 46841 ft | 446 kts | 353° |
| 2026-04-26 06:43 | 28.67586 | -97.44954 | 46838 ft | 454 kts | 353° |
| 2026-04-26 06:43 | 28.73944 | -97.44992 | 46836 ft | 459 kts | 353° |
| 2026-04-26 06:44 | 28.80336 | -97.45030 | 46850 ft | 461 kts | 353° |
| 2026-04-26 06:44 | 28.86773 | -97.45070 | 46838 ft | 464 kts | 353° |